createdAt,value
2023-03-01T00:00:15.834Z,8.12
2023-03-01T00:02:42.749Z,8.13
2023-03-01T00:05:09.949Z,8.12
2023-03-01T00:07:37.040Z,8.16
2023-03-01T00:10:04.819Z,8.19
2023-03-01T00:12:32.933Z,8.20
2023-03-01T00:15:00.019Z,8.17
2023-03-01T00:17:28.788Z,8.16
2023-03-01T00:19:55.763Z,8.11
2023-03-01T00:22:22.602Z,8.11
2023-03-01T00:24:49.531Z,8.11
2023-03-01T00:27:16.599Z,8.12
2023-03-01T00:29:43.581Z,8.11
2023-03-01T00:32:10.603Z,8.11
2023-03-01T00:34:37.564Z,8.14
2023-03-01T00:37:06.491Z,8.11
2023-03-01T00:39:34.557Z,8.11
2023-03-01T00:42:01.580Z,8.06
2023-03-01T00:44:29.455Z,8.04
2023-03-01T00:46:56.475Z,8.01
2023-03-01T00:49:25.575Z,7.99
2023-03-01T00:51:52.467Z,8.00
2023-03-01T00:54:23.192Z,7.97
2023-03-01T00:56:50.256Z,8.00
2023-03-01T00:59:17.127Z,7.98
2023-03-01T01:01:43.970Z,8.00
2023-03-01T01:04:12.647Z,8.00
2023-03-01T01:06:40.935Z,7.96
2023-03-01T01:09:08.594Z,7.92
2023-03-01T01:11:37.643Z,7.85
2023-03-01T01:14:04.823Z,7.87
2023-03-01T01:16:32.222Z,7.87
2023-03-01T01:18:59.339Z,7.89
2023-03-01T01:21:26.997Z,7.89
2023-03-01T01:23:54.366Z,7.92
2023-03-01T01:26:23.624Z,7.89
2023-03-01T01:28:50.542Z,7.90
2023-03-01T01:31:17.602Z,7.88
2023-03-01T01:33:44.650Z,7.88
2023-03-01T01:36:12.111Z,7.90
2023-03-01T01:38:39.866Z,7.88
2023-03-01T01:41:07.012Z,7.88
2023-03-01T01:43:36.589Z,7.87
2023-03-01T01:46:05.736Z,7.82
2023-03-01T01:48:41.638Z,7.72
2023-03-01T01:51:10.985Z,7.69
2023-03-01T01:53:38.173Z,7.68
2023-03-01T01:56:08.169Z,7.70
2023-03-01T01:58:35.029Z,7.69
2023-03-01T02:01:02.944Z,7.71
2023-03-01T02:03:34.501Z,7.74
2023-03-01T02:06:05.829Z,7.73
2023-03-01T02:08:34.659Z,7.74
2023-03-01T02:11:02.188Z,7.71
2023-03-01T02:13:29.168Z,7.68
2023-03-01T02:15:56.024Z,7.68
2023-03-01T02:18:24.879Z,7.65
2023-03-01T02:20:54.888Z,7.65
2023-03-01T02:23:21.744Z,7.68
2023-03-01T02:25:53.914Z,7.68
2023-03-01T02:28:23.814Z,7.68
2023-03-01T02:30:57.668Z,7.69
2023-03-01T02:33:25.168Z,7.70
2023-03-01T02:35:53.598Z,7.69
2023-03-01T02:38:21.029Z,7.66
2023-03-01T02:40:49.100Z,7.65
2023-03-01T02:43:16.374Z,7.63
2023-03-01T02:45:46.184Z,7.65
2023-03-01T02:48:12.898Z,7.62
2023-03-01T02:50:42.723Z,7.60
2023-03-01T02:53:13.959Z,7.56
2023-03-01T02:55:41.375Z,7.49
2023-03-01T02:58:08.660Z,7.46
2023-03-01T03:00:40.751Z,7.45
2023-03-01T03:03:08.248Z,7.47
2023-03-01T03:05:34.940Z,7.48
2023-03-01T03:08:03.310Z,7.51
2023-03-01T03:10:31.752Z,7.49
2023-03-01T03:12:59.846Z,7.49
2023-03-01T03:15:27.241Z,7.48
2023-03-01T03:17:54.323Z,7.52
2023-03-01T03:20:22.776Z,7.53
2023-03-01T03:22:50.514Z,7.48
2023-03-01T03:25:18.321Z,7.46
2023-03-01T03:27:46.177Z,7.45
2023-03-01T03:30:14.833Z,7.38
2023-03-01T03:32:42.119Z,7.37
2023-03-01T03:35:10.512Z,7.36
2023-03-01T03:37:41.813Z,7.36
2023-03-01T03:40:16.648Z,7.37
2023-03-01T03:42:43.446Z,7.37
2023-03-01T03:45:10.348Z,7.35
2023-03-01T03:47:37.112Z,7.32
2023-03-01T03:50:03.819Z,7.31
2023-03-01T03:52:30.583Z,7.29
2023-03-01T03:54:57.309Z,7.29
2023-03-01T03:57:24.089Z,7.29
2023-03-01T03:59:50.854Z,7.31
2023-03-01T04:02:23.230Z,7.30
2023-03-01T04:04:51.205Z,7.21
2023-03-01T04:07:18.090Z,7.16
2023-03-01T04:09:45.365Z,7.16
2023-03-01T04:12:12.085Z,7.15
2023-03-01T04:14:38.817Z,7.12
2023-03-01T04:17:06.448Z,7.10
2023-03-01T04:19:37.158Z,7.09
2023-03-01T04:22:10.453Z,7.06
2023-03-01T04:24:37.195Z,7.05
2023-03-01T04:27:04.050Z,7.03
2023-03-01T04:29:30.958Z,7.04
2023-03-01T04:31:58.068Z,7.01
2023-03-01T04:34:24.922Z,7.00
2023-03-01T04:36:51.815Z,6.99
2023-03-01T04:39:18.780Z,7.04
2023-03-01T04:41:45.500Z,7.08
2023-03-01T04:44:12.196Z,7.09
2023-03-01T04:46:41.377Z,7.04
2023-03-01T04:49:08.174Z,7.10
2023-03-01T04:51:35.136Z,7.11
2023-03-01T04:54:01.875Z,7.12
2023-03-01T04:56:28.873Z,7.12
2023-03-01T04:58:56.016Z,7.14
2023-03-01T05:01:23.115Z,7.15
2023-03-01T05:03:51.035Z,7.16
2023-03-01T05:06:18.484Z,7.15
2023-03-01T05:08:45.705Z,7.18
2023-03-01T05:11:13.262Z,7.15
2023-03-01T05:13:40.567Z,7.17
2023-03-01T05:16:08.086Z,7.19
2023-03-01T05:18:35.198Z,7.18
2023-03-01T05:21:05.156Z,7.20
2023-03-01T05:23:32.751Z,7.22
2023-03-01T05:26:00.828Z,7.25
2023-03-01T05:28:29.338Z,7.25
2023-03-01T05:30:56.420Z,7.23
2023-03-01T05:33:23.365Z,7.21
2023-03-01T05:35:50.921Z,7.24
2023-03-01T05:38:17.836Z,7.23
2023-03-01T05:40:45.350Z,7.23
2023-03-01T05:43:12.597Z,7.22
2023-03-01T05:45:39.491Z,7.21
2023-03-01T05:48:06.976Z,7.22
2023-03-01T05:50:35.332Z,7.23
2023-03-01T05:53:06.733Z,7.26
2023-03-01T05:55:34.141Z,7.23
2023-03-01T05:58:01.411Z,7.19
2023-03-01T06:00:28.659Z,7.18
2023-03-01T06:02:55.787Z,7.18
2023-03-01T06:05:23.434Z,7.17
2023-03-01T06:07:51.190Z,7.18
2023-03-01T06:10:18.644Z,7.18
2023-03-01T06:12:45.834Z,7.21
2023-03-01T06:15:13.974Z,7.24
2023-03-01T06:17:41.725Z,7.27
2023-03-01T06:20:10.544Z,7.27
2023-03-01T06:22:37.325Z,7.27
2023-03-01T06:25:04.391Z,7.26
2023-03-01T06:27:31.189Z,7.26
2023-03-01T06:29:58.026Z,7.24
2023-03-01T06:32:24.890Z,7.26
2023-03-01T06:34:51.740Z,7.26
2023-03-01T06:37:18.523Z,7.28
2023-03-01T06:39:45.274Z,7.28
2023-03-01T06:42:12.156Z,7.25
2023-03-01T06:44:38.967Z,7.25
2023-03-01T06:47:05.880Z,7.25
2023-03-01T06:49:34.847Z,7.24
2023-03-01T06:52:01.641Z,7.22
2023-03-01T06:54:28.441Z,7.20
2023-03-01T06:56:55.277Z,7.23
2023-03-01T06:59:22.214Z,7.25
2023-03-01T07:01:48.994Z,7.27
2023-03-01T07:04:15.737Z,7.32
2023-03-01T07:06:42.502Z,7.34
2023-03-01T07:09:09.270Z,7.31
2023-03-01T07:11:36.230Z,7.25
2023-03-01T07:14:02.990Z,7.18
2023-03-01T07:16:30.105Z,7.18
2023-03-01T07:18:59.189Z,7.17
2023-03-01T07:21:26.645Z,7.21
2023-03-01T07:23:53.598Z,7.22
2023-03-01T07:26:20.431Z,7.28
2023-03-01T07:28:47.181Z,7.29
2023-03-01T07:31:14.015Z,7.31
2023-03-01T07:33:40.876Z,7.32
2023-03-01T07:36:08.451Z,7.34
2023-03-01T07:38:35.496Z,7.35
2023-03-01T07:41:04.059Z,7.39
2023-03-01T07:43:31.593Z,7.40
2023-03-01T07:46:00.217Z,7.45
2023-03-01T07:48:27.311Z,7.49
2023-03-01T07:50:54.077Z,7.54
2023-03-01T07:53:21.071Z,7.57
2023-03-01T07:56:04.727Z,7.59
2023-03-01T07:58:31.643Z,7.63
2023-03-01T08:01:02.175Z,7.86
2023-03-01T08:03:29.091Z,7.92
2023-03-01T08:05:55.974Z,7.89
2023-03-01T08:08:22.991Z,7.82
2023-03-01T08:10:49.836Z,7.76
2023-03-01T08:13:16.782Z,7.71
2023-03-01T08:15:48.508Z,7.66
2023-03-01T08:18:15.388Z,7.52
2023-03-01T08:20:42.253Z,7.47
2023-03-01T08:23:09.186Z,7.48
2023-03-01T08:25:36.500Z,7.52
2023-03-01T08:28:03.873Z,7.54
2023-03-01T08:30:31.116Z,7.60
2023-03-01T08:32:58.442Z,7.71
2023-03-01T08:35:25.432Z,7.79
2023-03-01T08:37:52.626Z,7.85
2023-03-01T08:40:19.582Z,7.97
2023-03-01T08:42:46.931Z,8.11
2023-03-01T08:45:15.563Z,8.22
2023-03-01T08:47:42.566Z,8.30
2023-03-01T08:50:10.047Z,8.32
2023-03-01T08:52:36.911Z,8.29
2023-03-01T08:55:04.093Z,8.39
2023-03-01T08:57:31.027Z,8.62
2023-03-01T08:59:58.031Z,8.91
2023-03-01T09:02:25.309Z,9.15
2023-03-01T09:04:52.349Z,9.26
2023-03-01T09:07:34.399Z,9.42
2023-03-01T09:10:01.326Z,9.58
2023-03-01T09:12:28.616Z,9.59
2023-03-01T09:14:55.475Z,8.94
2023-03-01T09:17:22.760Z,9.01
2023-03-01T09:19:50.254Z,8.97
2023-03-01T09:22:17.360Z,8.92
2023-03-01T09:24:44.597Z,8.89
2023-03-01T09:27:14.191Z,8.82
2023-03-01T09:29:41.160Z,8.85
2023-03-01T09:32:09.543Z,8.80
2023-03-01T09:34:56.261Z,8.83
2023-03-01T09:37:23.152Z,8.84
2023-03-01T09:39:50.217Z,8.82
2023-03-01T09:42:17.420Z,8.84
2023-03-01T09:44:49.000Z,8.87
2023-03-01T09:47:37.924Z,8.84
2023-03-01T09:50:08.452Z,8.67
2023-03-01T09:52:41.245Z,8.67
2023-03-01T09:55:10.968Z,8.68
2023-03-01T09:57:40.711Z,8.64
2023-03-01T10:00:08.306Z,8.65
2023-03-01T10:02:38.302Z,8.65
2023-03-01T10:05:08.256Z,8.68
2023-03-01T10:07:39.654Z,8.78
2023-03-01T10:10:08.745Z,8.88
2023-03-01T10:12:39.124Z,9.04
2023-03-01T10:15:07.789Z,9.16
2023-03-01T10:17:37.841Z,9.14
2023-03-01T10:20:07.958Z,9.17
2023-03-01T10:22:36.143Z,9.15
2023-03-01T10:25:04.845Z,9.04
2023-03-01T10:27:34.759Z,9.02
2023-03-01T10:30:04.698Z,9.01
2023-03-01T10:32:32.551Z,8.97
2023-03-01T10:34:59.816Z,8.99
2023-03-01T10:37:28.546Z,8.93
2023-03-01T10:39:58.678Z,8.95
2023-03-01T10:42:28.814Z,8.97
2023-03-01T10:44:55.953Z,8.85
2023-03-01T10:47:26.853Z,8.82
2023-03-01T10:49:55.496Z,8.80
2023-03-01T10:52:24.322Z,8.81
2023-03-01T10:54:54.334Z,8.84
2023-03-01T10:57:24.333Z,8.71
2023-03-01T11:00:02.926Z,8.73
2023-03-01T11:02:30.759Z,8.75
2023-03-01T11:05:00.418Z,8.74
2023-03-01T11:07:27.616Z,8.78
2023-03-01T11:09:54.673Z,8.84
2023-03-01T11:12:22.261Z,8.92
2023-03-01T11:14:50.570Z,8.90
2023-03-01T11:17:24.846Z,8.80
2023-03-01T11:20:02.499Z,8.85
2023-03-01T11:22:30.265Z,8.88
2023-03-01T11:25:09.329Z,8.90
2023-03-01T11:27:41.910Z,8.89
2023-03-01T11:30:12.088Z,8.96
2023-03-01T11:32:42.106Z,8.97
2023-03-01T11:35:12.057Z,9.02
2023-03-01T11:37:42.032Z,9.05
2023-03-01T11:40:12.161Z,9.07
2023-03-01T11:42:40.665Z,9.06
2023-03-01T11:45:10.479Z,9.04
2023-03-01T11:47:40.765Z,9.04
2023-03-01T11:50:10.949Z,8.99
2023-03-01T11:52:51.139Z,9.03
2023-03-01T11:55:19.414Z,9.06
2023-03-01T11:57:49.444Z,9.09
2023-03-01T12:00:19.450Z,9.21
2023-03-01T12:02:49.593Z,9.28
2023-03-01T12:05:19.614Z,9.32
2023-03-01T12:07:49.053Z,9.40
2023-03-01T12:10:17.595Z,9.39
2023-03-01T12:12:47.951Z,9.37
2023-03-01T12:15:17.903Z,9.25
2023-03-01T12:17:47.870Z,9.15
2023-03-01T12:20:17.793Z,9.19
2023-03-01T12:22:54.216Z,9.18
2023-03-01T12:25:24.296Z,9.24
2023-03-01T12:28:02.653Z,9.32
2023-03-01T12:30:30.024Z,9.38
2023-03-01T12:33:00.078Z,9.45
2023-03-01T12:35:30.520Z,9.50
2023-03-01T12:37:58.790Z,9.51
2023-03-01T12:40:28.759Z,9.57
2023-03-01T12:42:58.829Z,9.69
2023-03-01T12:45:33.636Z,9.67
2023-03-01T12:48:03.770Z,9.58
2023-03-01T12:50:40.159Z,9.55
2023-03-01T12:53:09.698Z,9.55
2023-03-01T12:55:39.836Z,9.57
2023-03-01T12:58:10.981Z,9.60
2023-03-01T13:00:41.087Z,9.60
2023-03-01T13:03:16.202Z,9.70
2023-03-01T13:05:57.518Z,9.77
2023-03-01T13:08:31.426Z,9.80
2023-03-01T13:11:01.611Z,9.83
2023-03-01T13:13:29.711Z,9.85
2023-03-01T13:15:57.335Z,9.75
2023-03-01T13:18:26.418Z,9.77
2023-03-01T13:20:55.372Z,9.69
2023-03-01T13:23:22.858Z,9.71
2023-03-01T13:25:53.024Z,9.76
2023-03-01T13:28:23.023Z,9.82
2023-03-01T13:30:49.941Z,9.86
2023-03-01T13:33:35.552Z,9.93
2023-03-01T13:36:02.858Z,9.93
2023-03-01T13:38:32.797Z,9.94
2023-03-01T13:41:01.360Z,9.97
2023-03-01T13:43:31.315Z,9.98
2023-03-01T13:45:58.775Z,9.99
2023-03-01T13:48:27.364Z,10.01
2023-03-01T13:50:59.098Z,10.11
2023-03-01T13:53:27.533Z,10.24
2023-03-01T13:55:59.516Z,10.23
2023-03-01T13:58:29.003Z,10.31
2023-03-01T14:00:57.839Z,10.36
2023-03-01T14:03:24.921Z,10.35
2023-03-01T14:06:01.981Z,10.09
2023-03-01T14:08:35.584Z,10.16
2023-03-01T14:11:05.533Z,10.22
2023-03-01T14:13:32.844Z,10.29
2023-03-01T14:16:02.944Z,10.38
2023-03-01T14:18:34.927Z,10.49
2023-03-01T14:21:02.414Z,10.61
2023-03-01T14:23:29.229Z,10.67
2023-03-01T14:25:56.953Z,10.64
2023-03-01T14:28:27.654Z,10.57
2023-03-01T14:30:56.157Z,10.41
2023-03-01T14:33:26.137Z,10.23
2023-03-01T14:35:56.124Z,10.27
2023-03-01T14:38:24.757Z,10.27
2023-03-01T14:40:56.437Z,10.27
2023-03-01T14:43:27.198Z,10.28
2023-03-01T14:45:54.707Z,10.29
2023-03-01T14:48:21.807Z,10.33
2023-03-01T14:50:49.963Z,10.38
2023-03-01T14:53:19.581Z,10.38
2023-03-01T14:55:48.235Z,10.38
2023-03-01T14:58:16.573Z,10.38
2023-03-01T15:00:49.659Z,10.31
2023-03-01T15:03:20.256Z,10.20
2023-03-01T15:05:47.386Z,10.20
2023-03-01T15:08:20.815Z,10.16
2023-03-01T15:10:55.056Z,10.16
2023-03-01T15:13:23.479Z,10.17
2023-03-01T15:15:52.477Z,10.21
2023-03-01T15:18:20.741Z,10.23
2023-03-01T15:20:48.719Z,10.26
2023-03-01T15:23:18.594Z,10.31
2023-03-01T15:25:46.280Z,10.38
2023-03-01T15:28:20.457Z,10.44
2023-03-01T15:30:53.314Z,10.45
2023-03-01T15:33:28.627Z,10.43
2023-03-01T15:35:57.703Z,10.43
2023-03-01T15:38:33.200Z,10.39
2023-03-01T15:41:01.663Z,10.33
2023-03-01T15:43:32.001Z,10.29
2023-03-01T15:45:59.428Z,10.28
2023-03-01T15:48:28.810Z,10.31
2023-03-01T15:50:58.786Z,10.37
2023-03-01T15:53:27.853Z,10.39
2023-03-01T15:55:54.738Z,10.43
2023-03-01T15:58:23.290Z,10.46
2023-03-01T16:01:02.078Z,10.52
2023-03-01T16:03:29.457Z,10.58
2023-03-01T16:05:57.003Z,10.62
2023-03-01T16:08:23.916Z,10.60
2023-03-01T16:10:52.330Z,10.54
2023-03-01T16:13:19.661Z,10.53
2023-03-01T16:18:27.518Z,10.44
2023-03-01T16:20:59.876Z,10.40
2023-03-01T16:23:26.992Z,10.36
2023-03-01T16:25:53.803Z,10.23
2023-03-01T16:28:20.916Z,10.20
2023-03-01T16:30:49.960Z,10.20
2023-03-01T16:33:29.445Z,10.20
2023-03-01T16:36:01.370Z,10.19
2023-03-01T16:38:28.483Z,10.14
2023-03-01T16:40:58.176Z,10.13
2023-03-01T16:43:25.312Z,10.16
2023-03-01T16:45:52.567Z,10.15
2023-03-01T16:48:20.963Z,10.17
2023-03-01T16:51:00.085Z,10.22
2023-03-01T16:53:33.379Z,10.18
2023-03-01T16:56:07.253Z,10.13
2023-03-01T16:58:37.560Z,10.11
2023-03-01T17:01:07.103Z,10.06
2023-03-01T17:03:34.440Z,10.05
2023-03-01T17:06:03.698Z,10.09
2023-03-01T17:08:32.002Z,10.07
2023-03-01T17:11:02.503Z,10.07
2023-03-01T17:13:31.908Z,10.07
2023-03-01T17:15:59.071Z,10.10
2023-03-01T17:18:26.199Z,10.11
2023-03-01T17:20:56.623Z,10.13
2023-03-01T17:23:34.112Z,10.12
2023-03-01T17:26:07.424Z,10.09
2023-03-01T17:28:46.572Z,10.12
2023-03-01T17:31:16.412Z,10.18
2023-03-01T17:33:43.778Z,10.12
2023-03-01T17:36:10.757Z,10.10
2023-03-01T17:38:38.008Z,10.05
2023-03-01T17:41:05.540Z,10.06
2023-03-01T17:43:34.643Z,10.01
2023-03-01T17:46:02.801Z,10.03
2023-03-01T17:48:29.846Z,10.00
2023-03-01T17:51:03.096Z,10.02
2023-03-01T17:53:31.710Z,10.04
2023-03-01T17:56:09.583Z,10.05
2023-03-01T17:58:45.026Z,10.06
2023-03-01T18:01:14.456Z,10.03
2023-03-01T18:03:41.976Z,10.00
2023-03-01T18:06:14.330Z,9.96
2023-03-01T18:08:41.435Z,9.92
2023-03-01T18:11:09.286Z,9.91
2023-03-01T18:13:36.655Z,9.93
2023-03-01T18:16:05.801Z,9.97
2023-03-01T18:18:33.650Z,9.92
2023-03-01T18:21:02.072Z,9.91
2023-03-01T18:23:29.577Z,9.87
2023-03-01T18:25:59.837Z,9.83
2023-03-01T18:28:27.569Z,9.76
2023-03-01T18:30:58.582Z,9.75
2023-03-01T18:33:26.162Z,9.75
2023-03-01T18:35:53.521Z,9.76
2023-03-01T18:38:21.072Z,9.76
2023-03-01T18:40:48.185Z,9.76
2023-03-01T18:43:15.125Z,9.76
2023-03-01T18:45:45.434Z,9.82
2023-03-01T18:48:14.739Z,9.84
2023-03-01T18:50:42.224Z,9.83
2023-03-01T18:53:09.297Z,9.85
2023-03-01T18:55:37.493Z,9.84
2023-03-01T18:58:04.828Z,9.85
2023-03-01T19:00:32.752Z,9.79
2023-03-01T19:03:01.602Z,9.71
2023-03-01T19:05:28.994Z,9.70
2023-03-01T19:07:55.977Z,9.69
2023-03-01T19:10:23.186Z,9.69
2023-03-01T19:12:50.172Z,9.70
2023-03-01T19:15:18.649Z,9.72
2023-03-01T19:17:46.277Z,9.71
2023-03-01T19:20:16.542Z,9.69
2023-03-01T19:22:45.164Z,9.72
2023-03-01T19:25:13.250Z,9.70
2023-03-01T19:27:41.360Z,9.63
2023-03-01T19:30:11.359Z,9.63
2023-03-01T19:32:39.965Z,9.59
2023-03-01T19:35:11.013Z,9.54
2023-03-01T19:37:39.422Z,9.45
2023-03-01T19:40:07.698Z,9.42
2023-03-01T19:42:35.995Z,9.35
2023-03-01T19:45:03.704Z,9.32
2023-03-01T19:47:31.226Z,9.27
2023-03-01T19:49:59.789Z,9.22
2023-03-01T19:52:28.492Z,9.20
2023-03-01T19:55:08.603Z,9.17
2023-03-01T19:57:37.051Z,9.13
2023-03-01T20:00:05.294Z,9.14
2023-03-01T20:02:33.098Z,9.16
2023-03-01T20:05:00.665Z,9.14
2023-03-01T20:07:27.922Z,9.14
2023-03-01T20:09:55.083Z,9.16
2023-03-01T20:12:22.646Z,9.15
2023-03-01T20:14:51.826Z,9.13
2023-03-01T20:17:19.242Z,9.15
2023-03-01T20:19:46.302Z,9.17
2023-03-01T20:22:15.219Z,9.17
2023-03-01T20:24:42.436Z,9.17
2023-03-01T20:27:12.284Z,9.15
2023-03-01T20:29:39.751Z,9.09
2023-03-01T20:32:07.013Z,9.08
2023-03-01T20:34:34.108Z,9.06
2023-03-01T20:37:05.041Z,9.01
2023-03-01T20:39:32.352Z,8.99
2023-03-01T20:41:59.768Z,8.98
2023-03-01T20:44:27.047Z,8.98
2023-03-01T20:46:53.985Z,8.99
2023-03-01T20:49:21.884Z,8.95
2023-03-01T20:51:48.719Z,8.94
2023-03-01T20:54:15.754Z,8.88
2023-03-01T20:56:43.243Z,8.82
2023-03-01T20:59:12.516Z,8.81
2023-03-01T21:01:40.188Z,8.78
2023-03-01T21:04:07.091Z,8.70
2023-03-01T21:06:34.365Z,8.68
2023-03-01T21:09:03.825Z,8.64
2023-03-01T21:11:33.229Z,8.62
2023-03-01T21:14:00.489Z,8.58
2023-03-01T21:16:28.125Z,8.57
2023-03-01T21:18:55.112Z,8.55
2023-03-01T21:21:23.431Z,8.52
2023-03-01T21:23:50.450Z,8.51
2023-03-01T21:26:20.144Z,8.48
2023-03-01T21:28:47.418Z,8.46
2023-03-01T21:31:15.891Z,8.45
2023-03-01T21:33:45.642Z,8.41
2023-03-01T21:36:12.780Z,8.41
2023-03-01T21:38:41.477Z,8.42
2023-03-01T21:41:09.793Z,8.44
2023-03-01T21:43:37.755Z,8.41
2023-03-01T21:46:05.436Z,8.37
2023-03-01T21:48:32.965Z,8.37
2023-03-01T21:51:01.080Z,8.34
2023-03-01T21:53:30.380Z,8.35
2023-03-01T21:55:57.463Z,8.32
2023-03-01T21:58:25.955Z,8.28
2023-03-01T22:00:53.139Z,8.20
2023-03-01T22:03:20.469Z,8.18
2023-03-01T22:05:50.776Z,8.21
2023-03-01T22:08:19.294Z,8.16
2023-03-01T22:10:46.577Z,8.11
2023-03-01T22:13:13.989Z,8.10
2023-03-01T22:15:42.049Z,8.09
2023-03-01T22:18:09.657Z,8.09
2023-03-01T22:20:37.192Z,8.06
2023-03-01T22:23:04.653Z,8.02
2023-03-01T22:25:31.798Z,7.99
2023-03-01T22:27:59.013Z,7.97
2023-03-01T22:30:26.261Z,7.94
2023-03-01T22:32:55.585Z,7.93
2023-03-01T22:35:25.779Z,7.90
2023-03-01T22:37:52.787Z,7.88
2023-03-01T22:40:19.886Z,7.86
2023-03-01T22:42:46.840Z,7.87
2023-03-01T22:45:14.629Z,7.83
2023-03-01T22:47:43.167Z,7.81
2023-03-01T22:50:14.778Z,7.79
2023-03-01T22:52:43.582Z,7.82
2023-03-01T22:55:12.579Z,7.81
2023-03-01T22:57:40.710Z,7.80
2023-03-01T23:00:13.439Z,7.78
2023-03-01T23:02:42.620Z,7.77
2023-03-01T23:05:10.177Z,7.78
2023-03-01T23:07:40.000Z,7.71
2023-03-01T23:10:07.682Z,7.72
2023-03-01T23:12:36.569Z,7.69
2023-03-01T23:15:04.086Z,7.72
2023-03-01T23:17:31.056Z,7.73
2023-03-01T23:19:58.133Z,7.70
2023-03-01T23:22:25.287Z,7.72
2023-03-01T23:24:52.455Z,7.64
2023-03-01T23:27:19.499Z,7.65
2023-03-01T23:29:46.561Z,7.67
2023-03-01T23:32:15.077Z,7.61
2023-03-01T23:34:44.120Z,7.60
2023-03-01T23:37:11.080Z,7.52
2023-03-01T23:39:40.798Z,7.46
2023-03-01T23:42:08.694Z,7.46
2023-03-01T23:44:35.980Z,7.39
2023-03-01T23:47:03.770Z,7.36
2023-03-01T23:49:30.702Z,7.32
2023-03-01T23:51:57.695Z,7.31
2023-03-01T23:54:24.971Z,7.28
2023-03-01T23:56:52.017Z,7.24
2023-03-01T23:59:20.352Z,7.20
